Time;durP1;ratioP1;P1;durP2;ratioP2;P2;SDS_P1;SDS_P2;PMS_P1;PMS_P2;Temp;Humidity;BMP_temperature;BMP_pressure;BME280_temperature;BME280_humidity;BME280_pressure;Samples;Min_cycle;Max_cycle;Signal;HPM_P1;HPM_P2
2022/11/12 00:02:21;;;;;;;7.33;4.10;;;4.60;99.90;;;;;;5040799;28;20626;-69
2022/11/12 00:04:47;;;;;;;7.30;3.70;;;4.50;99.90;;;;;;5038306;28;20182;-69
2022/11/12 00:07:12;;;;;;;6.87;3.50;;;4.40;99.90;;;;;;5033424;28;20706;-69
2022/11/12 00:09:38;;;;;;;15.87;4.07;;;4.40;99.90;;;;;;5034239;28;20249;-69
2022/11/12 00:12:04;;;;;;;7.93;3.57;;;4.40;99.90;;;;;;5044869;28;20261;-69
2022/11/12 00:14:29;;;;;;;4.73;2.77;;;4.50;99.90;;;;;;5045519;28;20196;-69
2022/11/12 00:16:55;;;;;;;6.73;4.07;;;4.50;99.90;;;;;;5033700;28;20183;-69
2022/11/12 00:19:20;;;;;;;9.80;3.07;;;4.50;99.90;;;;;;5032452;28;20301;-69
2022/11/12 00:21:46;;;;;;;10.97;4.37;;;4.50;99.90;;;;;;5032663;28;20190;-69
2022/11/12 00:24:11;;;;;;;6.30;2.90;;;4.40;99.90;;;;;;5022821;28;20197;-69
2022/11/12 00:26:37;;;;;;;4.40;2.97;;;4.40;99.90;;;;;;5042191;28;20187;-69
2022/11/12 00:29:03;;;;;;;5.10;3.57;;;4.40;99.90;;;;;;5045385;28;20186;-69
2022/11/12 00:31:28;;;;;;;5.60;3.20;;;4.40;99.90;;;;;;5044352;28;20186;-69
2022/11/12 00:33:54;;;;;;;6.27;3.37;;;4.40;99.90;;;;;;5036115;28;20225;-69
2022/11/12 00:36:19;;;;;;;4.60;2.90;;;4.40;99.90;;;;;;5037206;28;20194;-69
2022/11/12 00:38:45;;;;;;;6.07;3.40;;;4.40;99.90;;;;;;5045270;28;20212;-69
2022/11/12 00:41:11;;;;;;;5.70;3.33;;;4.40;99.90;;;;;;5025465;28;20239;-69
2022/11/12 00:43:36;;;;;;;7.17;3.40;;;4.40;99.90;;;;;;5029738;28;20190;-69
2022/11/12 00:46:02;;;;;;;4.10;2.80;;;4.30;99.90;;;;;;5034569;28;20206;-69
2022/11/12 00:48:28;;;;;;;3.90;2.97;;;4.40;99.90;;;;;;5046461;28;20186;-69
2022/11/12 00:51:01;;;;;;;9.57;3.80;;;4.40;99.90;;;;;;5025031;28;20185;-69
2022/11/12 00:53:27;;;;;;;7.20;3.17;;;4.40;99.90;;;;;;5033063;28;20195;-69
2022/11/12 00:55:52;;;;;;;7.40;4.40;;;4.40;99.90;;;;;;5033623;28;20418;-69
2022/11/12 00:58:18;;;;;;;6.20;2.90;;;4.50;99.90;;;;;;5026189;28;20292;-69
2022/11/12 01:00:43;;;;;;;9.70;3.83;;;4.50;99.90;;;;;;5032407;28;20190;-69
2022/11/12 01:03:09;;;;;;;8.23;3.33;;;4.50;99.90;;;;;;5030814;28;20260;-69
2022/11/12 01:05:34;;;;;;;8.37;3.63;;;4.50;99.90;;;;;;5047360;28;20660;-69
2022/11/12 01:08:00;;;;;;;8.93;4.17;;;4.50;99.90;;;;;;5032726;28;20194;-69
2022/11/12 01:10:25;;;;;;;9.87;4.30;;;4.60;99.90;;;;;;5044663;28;20195;-69
2022/11/12 01:12:51;;;;;;;4.67;2.77;;;4.60;99.90;;;;;;5022058;28;20962;-69
2022/11/12 01:15:17;;;;;;;5.93;4.07;;;4.60;99.90;;;;;;5031586;28;20186;-69
2022/11/12 01:17:42;;;;;;;8.10;3.63;;;4.60;99.90;;;;;;5034352;28;20601;-69
2022/11/12 01:20:08;;;;;;;8.20;3.90;;;4.60;99.90;;;;;;5032450;28;20182;-69
2022/11/12 01:22:34;;;;;;;5.07;2.60;;;4.60;99.90;;;;;;5045043;28;20615;-69
2022/11/12 01:24:59;;;;;;;8.53;3.60;;;4.60;99.90;;;;;;5040708;28;20198;-69
2022/11/12 01:27:25;;;;;;;6.20;3.90;;;4.50;99.90;;;;;;5031907;28;20190;-69
2022/11/12 01:29:50;;;;;;;9.53;4.20;;;4.60;99.90;;;;;;5021304;28;20217;-69
2022/11/12 01:32:16;;;;;;;8.93;3.90;;;4.50;99.90;;;;;;5031281;28;20197;-70
2022/11/12 01:34:42;;;;;;;10.70;4.20;;;4.50;99.90;;;;;;5029124;28;20179;-69
2022/11/12 01:37:07;;;;;;;7.93;4.40;;;4.50;99.90;;;;;;5018443;28;20191;-69
2022/11/12 01:39:33;;;;;;;7.87;4.50;;;4.50;99.90;;;;;;5019048;28;20253;-69
2022/11/12 01:41:58;;;;;;;8.67;3.67;;;4.50;99.90;;;;;;5031238;28;20183;-69
2022/11/12 01:44:28;;;;;;;5.20;3.20;;;4.50;99.90;;;;;;5014545;28;20182;-69
2022/11/12 01:47:05;;;;;;;8.60;4.00;;;4.50;99.90;;;;;;5034129;28;20189;-69
2022/11/12 01:49:49;;;;;;;6.27;3.00;;;4.50;99.90;;;;;;5019301;28;20428;-69
2022/11/12 01:52:36;;;;;;;9.87;4.30;;;4.40;99.90;;;;;;5028984;28;20520;-69
2022/11/12 01:55:16;;;;;;;11.50;4.20;;;4.50;99.90;;;;;;5031541;28;20453;-69
2022/11/12 01:58:06;;;;;;;6.13;3.67;;;4.50;99.90;;;;;;5022599;28;20786;-69
2022/11/12 02:00:31;;;;;;;10.10;4.70;;;4.50;99.90;;;;;;5024837;28;20436;-69
2022/11/12 02:02:59;;;;;;;5.63;3.77;;;4.50;99.90;;;;;;5037317;28;20463;-69
2022/11/12 02:05:27;;;;;;;7.57;3.70;;;4.50;99.90;;;;;;5025192;28;20217;-69
2022/11/12 02:07:53;;;;;;;10.93;4.27;;;4.50;99.90;;;;;;5012016;28;20453;-69
2022/11/12 02:10:22;;;;;;;6.90;3.63;;;4.40;99.90;;;;;;5044830;28;20449;-69
2022/11/12 02:15:36;;;;;;;7.53;3.50;;;4.40;99.90;;;;;;5031107;28;20511;-69
2022/11/12 02:18:02;;;;;;;9.03;3.60;;;4.30;99.90;;;;;;5048732;28;20477;-69
2022/11/12 02:20:32;;;;;;;6.60;3.43;;;4.30;99.90;;;;;;5024058;28;20429;-69
2022/11/12 02:22:58;;;;;;;7.23;3.87;;;4.20;99.90;;;;;;5016175;28;20273;-68
2022/11/12 02:25:25;;;;;;;5.10;3.73;;;4.20;99.90;;;;;;5024568;28;20457;-69
2022/11/12 02:27:53;;;;;;;6.73;3.37;;;4.20;99.90;;;;;;5031362;28;20183;-68
2022/11/12 02:30:30;;;;;;;4.40;3.20;;;4.20;99.90;;;;;;5029087;28;20436;-69
2022/11/12 02:32:56;;;;;;;5.10;3.70;;;4.20;99.90;;;;;;5037318;28;20436;-69
2022/11/12 02:35:22;;;;;;;3.90;2.70;;;4.10;99.90;;;;;;5032754;28;20429;-69
2022/11/12 02:37:47;;;;;;;5.73;2.70;;;4.10;99.90;;;;;;5026797;28;20191;-69
2022/11/12 02:40:13;;;;;;;6.13;3.47;;;4.10;99.90;;;;;;5034671;28;20805;-69
2022/11/12 02:42:38;;;;;;;7.07;4.27;;;4.10;99.90;;;;;;5004725;28;20194;-69
2022/11/12 02:45:04;;;;;;;5.83;2.77;;;4.10;99.90;;;;;;5023487;28;20191;-69
2022/11/12 02:47:30;;;;;;;6.40;3.43;;;4.00;99.90;;;;;;5031715;28;20191;-69
2022/11/12 02:49:56;;;;;;;7.67;4.03;;;4.00;99.90;;;;;;5026600;28;20437;-69
2022/11/12 02:52:21;;;;;;;5.10;3.60;;;3.90;99.90;;;;;;5034792;28;20183;-69
2022/11/12 02:54:47;;;;;;;4.90;3.37;;;3.90;99.90;;;;;;5026802;28;20206;-69
2022/11/12 02:57:12;;;;;;;8.57;3.90;;;3.90;99.90;;;;;;5021475;28;20208;-69
2022/11/12 02:59:38;;;;;;;5.60;3.53;;;3.90;99.90;;;;;;5038303;28;20208;-69
2022/11/12 03:02:03;;;;;;;8.23;3.93;;;3.90;99.90;;;;;;5043402;28;20190;-69
2022/11/12 03:04:29;;;;;;;7.37;3.37;;;3.80;99.90;;;;;;5040783;28;20583;-69
2022/11/12 03:06:54;;;;;;;6.27;3.00;;;3.80;99.90;;;;;;5036956;28;20189;-69
2022/11/12 03:09:20;;;;;;;8.00;3.93;;;3.80;99.90;;;;;;5032079;28;20274;-69
2022/11/12 03:11:45;;;;;;;7.60;3.90;;;3.80;99.90;;;;;;5046350;28;20194;-69
2022/11/12 03:14:11;;;;;;;7.80;3.73;;;3.80;99.90;;;;;;5027073;28;20563;-69
2022/11/12 03:16:37;;;;;;;6.40;3.77;;;3.70;99.90;;;;;;5030417;28;20198;-69
2022/11/12 03:19:02;;;;;;;7.00;3.60;;;3.70;99.90;;;;;;5039381;28;20222;-69
2022/11/12 03:21:28;;;;;;;7.03;3.67;;;3.60;99.90;;;;;;5050565;28;20190;-69
2022/11/12 03:23:53;;;;;;;5.47;3.00;;;3.60;99.90;;;;;;5045481;28;20218;-69
2022/11/12 03:26:19;;;;;;;6.77;3.20;;;3.60;99.90;;;;;;5034497;28;20764;-69
2022/11/12 03:28:44;;;;;;;7.87;4.13;;;3.70;99.90;;;;;;5033815;28;20228;-69
2022/11/12 03:31:10;;;;;;;5.77;3.40;;;3.70;99.90;;;;;;5034034;28;20216;-69
2022/11/12 03:33:36;;;;;;;3.97;2.53;;;3.60;99.90;;;;;;5032633;28;20183;-69
2022/11/12 03:36:03;;;;;;;4.27;3.00;;;3.50;99.90;;;;;;5027278;28;20437;-69
2022/11/12 03:38:29;;;;;;;17.40;2.50;;;3.50;99.90;;;;;;5025646;28;20230;-69
2022/11/12 03:40:54;;;;;;;5.80;2.43;;;3.40;99.90;;;;;;5016195;28;20460;-69
2022/11/12 03:43:20;;;;;;;5.87;3.13;;;3.40;99.90;;;;;;5015503;28;20937;-69
2022/11/12 03:45:46;;;;;;;3.40;2.80;;;3.40;99.90;;;;;;5034326;28;20183;-69
2022/11/12 03:48:11;;;;;;;3.13;2.20;;;3.40;99.90;;;;;;5026814;28;20191;-69
2022/11/12 03:50:37;;;;;;;24.17;3.17;;;3.30;99.90;;;;;;5035421;28;20213;-69
2022/11/12 03:53:03;;;;;;;6.10;2.63;;;3.20;99.90;;;;;;5042314;28;20225;-69
2022/11/12 03:55:29;;;;;;;8.10;3.63;;;3.20;99.90;;;;;;5023162;28;20229;-69
2022/11/12 03:57:55;;;;;;;6.80;3.40;;;3.10;99.90;;;;;;5014045;28;20203;-69
2022/11/12 04:00:23;;;;;;;5.60;3.00;;;3.10;99.90;;;;;;5013192;28;20182;-69
2022/11/12 04:02:49;;;;;;;7.20;3.00;;;3.10;99.90;;;;;;5024401;28;20432;-69
2022/11/12 04:10:53;;;;;;;3.70;2.30;;;3.10;99.90;;;;;;5023170;28;20469;-69
2022/11/12 04:13:28;;;;;;;4.87;2.70;;;3.10;99.90;;;;;;5012849;28;20457;-69
2022/11/12 04:21:49;;;;;;;7.10;3.37;;;3.30;99.90;;;;;;5046350;28;20440;-69
2022/11/12 04:27:09;;;;;;;11.00;3.97;;;3.20;99.90;;;;;;5036942;28;20428;-69
2022/11/12 04:32:19;;;;;;;7.00;3.30;;;3.40;99.90;;;;;;5031585;28;20997;-69
2022/11/12 04:34:45;;;;;;;6.87;3.73;;;3.40;99.90;;;;;;5027138;28;20505;-69
2022/11/12 04:37:10;;;;;;;5.63;2.93;;;3.40;99.90;;;;;;5031831;28;20475;-69
2022/11/12 04:39:36;;;;;;;8.83;3.03;;;3.50;99.90;;;;;;5028626;28;20201;-69
2022/11/12 04:44:59;;;;;;;5.43;3.13;;;3.50;99.90;;;;;;5033329;28;20223;-69
2022/11/12 04:47:33;;;;;;;7.40;3.00;;;3.50;99.90;;;;;;5049435;28;20414;-69
2022/11/12 04:50:00;;;;;;;5.13;3.30;;;3.40;99.90;;;;;;5039705;28;20905;-69
2022/11/12 04:52:27;;;;;;;6.80;2.87;;;3.30;99.90;;;;;;5037576;28;20447;-69
2022/11/12 04:54:53;;;;;;;5.60;2.87;;;3.20;99.90;;;;;;5046365;28;20494;-69
2022/11/12 04:57:19;;;;;;;7.80;3.70;;;3.20;99.90;;;;;;5032732;28;20424;-69
2022/11/12 04:59:45;;;;;;;5.23;3.63;;;3.10;99.90;;;;;;5031850;28;20543;-69
2022/11/12 05:02:10;;;;;;;5.30;2.33;;;3.10;99.90;;;;;;5020097;28;20209;-69
2022/11/12 05:04:36;;;;;;;5.33;3.20;;;3.10;99.90;;;;;;5031450;28;20417;-69
2022/11/12 05:07:02;;;;;;;5.13;2.80;;;3.10;99.90;;;;;;5026426;28;20238;-69
2022/11/12 05:09:28;;;;;;;5.70;3.40;;;3.10;99.90;;;;;;5024913;28;20182;-69
2022/11/12 05:11:55;;;;;;;5.63;3.30;;;3.20;99.90;;;;;;5028241;28;20202;-69
2022/11/12 05:14:22;;;;;;;5.03;2.03;;;3.30;99.90;;;;;;5031651;28;20425;-69
2022/11/12 05:16:48;;;;;;;4.47;2.30;;;3.30;99.90;;;;;;5031839;28;20439;-69
2022/11/12 05:19:13;;;;;;;4.70;2.93;;;3.30;99.90;;;;;;5037118;28;20469;-69
2022/11/12 05:24:23;;;;;;;2.93;2.20;;;3.30;99.90;;;;;;5029765;28;20248;-69
2022/11/12 05:26:50;;;;;;;5.07;2.73;;;3.30;99.90;;;;;;5031524;28;20905;-69
2022/11/12 05:29:16;;;;;;;7.47;3.20;;;3.40;99.90;;;;;;5041066;28;20541;-69
2022/11/12 05:31:41;;;;;;;3.80;2.23;;;3.40;99.90;;;;;;5046341;28;20430;-69
2022/11/12 05:34:07;;;;;;;4.97;2.60;;;3.40;99.90;;;;;;5029753;28;20186;-69
2022/11/12 05:36:33;;;;;;;5.20;2.70;;;3.40;99.90;;;;;;5031723;28;20194;-69
2022/11/12 05:38:59;;;;;;;5.33;3.13;;;3.40;99.90;;;;;;5029750;28;20241;-69
2022/11/12 05:41:25;;;;;;;7.50;4.27;;;3.40;99.90;;;;;;5021368;28;20296;-69
2022/11/12 05:43:51;;;;;;;8.83;4.30;;;3.40;99.90;;;;;;5036304;28;21013;-69
2022/11/12 05:46:17;;;;;;;6.33;3.40;;;3.40;99.90;;;;;;5042360;28;20186;-69
2022/11/12 05:48:42;;;;;;;8.93;5.30;;;3.40;99.90;;;;;;5036034;28;20269;-69
2022/11/12 05:51:08;;;;;;;10.37;5.47;;;3.40;99.90;;;;;;5031310;28;20197;-69
2022/11/12 05:53:33;;;;;;;8.53;3.67;;;3.30;99.90;;;;;;5031095;28;20228;-69
2022/11/12 05:56:04;;;;;;;9.03;4.40;;;3.40;99.90;;;;;;5031784;28;20236;-68
2022/11/12 05:58:30;;;;;;;4.70;2.70;;;3.40;99.90;;;;;;5030896;28;20252;-69
2022/11/12 06:00:56;;;;;;;5.83;2.97;;;3.40;99.90;;;;;;5040821;28;20416;-69
2022/11/12 06:03:21;;;;;;;4.27;2.63;;;3.40;99.90;;;;;;5034876;28;20429;-69
2022/11/12 06:05:47;;;;;;;5.50;2.50;;;3.40;99.90;;;;;;5021611;28;20426;-69
2022/11/12 06:08:13;;;;;;;5.73;2.80;;;3.30;99.90;;;;;;5027729;28;20277;-69
2022/11/12 06:10:38;;;;;;;3.73;2.27;;;3.20;99.90;;;;;;5014091;28;20245;-69
2022/11/12 06:13:04;;;;;;;5.00;2.37;;;3.20;99.90;;;;;;5043620;28;20186;-69
2022/11/12 06:15:30;;;;;;;3.83;2.30;;;3.10;99.90;;;;;;5031554;28;20244;-68
2022/11/12 06:17:55;;;;;;;1.87;1.20;;;3.00;99.90;;;;;;5033065;28;20508;-69
2022/11/12 06:20:22;;;;;;;2.80;1.97;;;3.00;99.90;;;;;;5036087;28;20251;-69
2022/11/12 06:22:49;;;;;;;2.67;1.57;;;2.90;99.90;;;;;;5043602;28;20182;-69
2022/11/12 06:25:15;;;;;;;2.67;1.70;;;2.90;99.90;;;;;;5026172;28;20426;-69
2022/11/12 06:27:41;;;;;;;5.60;1.87;;;2.90;99.90;;;;;;5029178;28;20425;-69
2022/11/12 06:30:07;;;;;;;7.40;2.60;;;2.90;99.90;;;;;;5033689;28;20432;-69
2022/11/12 06:32:33;;;;;;;3.80;2.10;;;2.90;99.90;;;;;;5024717;28;20795;-68
2022/11/12 06:34:59;;;;;;;2.77;1.60;;;2.80;99.90;;;;;;5019672;28;20516;-68
2022/11/12 06:37:25;;;;;;;4.50;2.50;;;2.90;99.90;;;;;;5028144;28;20322;-68
2022/11/12 06:39:50;;;;;;;4.03;1.70;;;2.80;99.90;;;;;;5015334;28;20225;-69
2022/11/12 06:42:16;;;;;;;5.60;1.93;;;2.80;99.90;;;;;;5012046;28;20804;-69
2022/11/12 06:44:42;;;;;;;3.07;2.27;;;2.70;99.90;;;;;;5024234;28;20235;-69
2022/11/12 06:47:09;;;;;;;4.47;2.10;;;2.60;99.90;;;;;;5037368;28;20265;-69
2022/11/12 06:49:34;;;;;;;5.23;2.67;;;2.60;99.90;;;;;;5010616;28;20516;-69
2022/11/12 06:52:00;;;;;;;2.97;2.00;;;2.50;99.90;;;;;;5022269;28;20571;-69
2022/11/12 06:54:26;;;;;;;4.00;2.23;;;2.50;99.90;;;;;;5016776;28;20704;-69
2022/11/12 06:56:51;;;;;;;3.90;2.30;;;2.50;99.90;;;;;;5015468;28;20195;-69
2022/11/12 06:59:17;;;;;;;4.20;1.80;;;2.50;99.90;;;;;;5010709;28;20564;-69
2022/11/12 07:01:43;;;;;;;4.20;2.20;;;2.60;99.90;;;;;;5033650;28;20187;-69
2022/11/12 07:04:09;;;;;;;1.90;1.50;;;2.60;99.90;;;;;;5041050;28;20260;-69
2022/11/12 07:06:35;;;;;;;8.77;3.63;;;2.70;99.90;;;;;;5018888;28;20215;-69
2022/11/12 07:09:03;;;;;;;4.03;2.67;;;2.70;99.90;;;;;;5023519;28;20425;-69
2022/11/12 07:11:28;;;;;;;5.17;3.23;;;2.80;99.90;;;;;;5042185;28;20921;-69
2022/11/12 07:13:54;;;;;;;7.07;3.50;;;2.90;99.90;;;;;;5036224;28;20431;-69
2022/11/12 07:16:21;;;;;;;6.47;3.70;;;2.90;99.90;;;;;;5033611;28;20704;-69
2022/11/12 07:18:47;;;;;;;6.73;3.37;;;3.00;99.90;;;;;;5030810;28;20585;-69
2022/11/12 07:21:16;;;;;;;3.80;2.30;;;3.10;99.90;;;;;;5031061;28;20856;-69
2022/11/12 07:23:42;;;;;;;2.73;1.70;;;3.20;99.90;;;;;;5028141;28;20770;-69
2022/11/12 07:26:20;;;;;;;5.47;2.83;;;3.20;99.90;;;;;;5034490;28;20517;-69
2022/11/12 07:28:46;;;;;;;4.80;3.50;;;3.20;99.90;;;;;;5033035;28;20224;-69
2022/11/12 07:31:13;;;;;;;10.47;5.20;;;3.20;99.90;;;;;;5032575;28;20424;-69
2022/11/12 07:33:41;;;;;;;6.27;3.90;;;3.20;99.90;;;;;;5026847;28;20480;-69
2022/11/12 07:36:09;;;;;;;6.20;3.80;;;3.30;99.90;;;;;;5031266;28;20433;-68
2022/11/12 07:38:37;;;;;;;4.80;3.20;;;3.40;99.90;;;;;;5021873;28;20517;-68
2022/11/12 07:41:08;;;;;;;5.47;3.17;;;3.50;99.90;;;;;;5020412;28;20425;-68
2022/11/12 07:43:36;;;;;;;5.20;2.67;;;3.60;99.90;;;;;;5036569;28;20416;-68
2022/11/12 07:46:26;;;;;;;6.33;3.40;;;3.80;99.90;;;;;;5033291;28;20505;-67
2022/11/12 07:48:52;;;;;;;4.60;2.87;;;3.90;99.90;;;;;;5023316;28;20424;-68
2022/11/12 07:51:23;;;;;;;5.33;3.23;;;4.10;99.90;;;;;;5030711;28;20429;-69
2022/11/12 07:53:51;;;;;;;5.97;2.73;;;4.30;99.90;;;;;;5016299;28;20438;-69
2022/11/12 07:56:19;;;;;;;6.40;2.90;;;4.50;99.90;;;;;;5031568;28;20429;-69
2022/11/12 07:58:45;;;;;;;4.90;2.33;;;4.70;99.90;;;;;;5030815;28;20472;-69
2022/11/12 08:01:36;;;;;;;4.40;2.57;;;4.90;99.90;;;;;;5046813;28;20428;-68
2022/11/12 08:04:04;;;;;;;2.40;1.40;;;5.10;99.90;;;;;;5041802;28;20189;-69
2022/11/12 08:06:31;;;;;;;3.20;2.00;;;5.30;99.90;;;;;;5021148;28;20421;-69
2022/11/12 08:08:58;;;;;;;3.73;1.80;;;5.40;99.90;;;;;;5033305;28;20448;-69
2022/11/12 08:11:24;;;;;;;3.80;1.70;;;5.60;99.90;;;;;;5013353;28;21289;-69
2022/11/12 08:13:50;;;;;;;3.50;1.43;;;5.80;99.90;;;;;;5022174;28;20430;-68
2022/11/12 08:16:16;;;;;;;2.60;1.67;;;5.90;99.90;;;;;;5045311;28;20194;-68
2022/11/12 08:18:43;;;;;;;2.83;1.77;;;6.10;99.90;;;;;;5044494;28;20491;-69
2022/11/12 08:21:12;;;;;;;4.40;1.80;;;6.30;99.90;;;;;;5059492;28;20427;-69
2022/11/12 08:23:37;;;;;;;2.37;1.13;;;6.40;99.90;;;;;;5056661;28;20433;-69
2022/11/12 08:26:05;;;;;;;3.43;1.47;;;6.60;99.90;;;;;;5035157;28;20440;-69
2022/11/12 08:28:33;;;;;;;2.90;1.50;;;6.70;99.90;;;;;;5032736;28;20178;-69
2022/11/12 08:31:06;;;;;;;3.37;1.30;;;6.90;99.90;;;;;;5021882;28;20523;-69
2022/11/12 08:33:32;;;;;;;2.57;1.40;;;7.00;99.90;;;;;;5024880;28;20422;-69
2022/11/12 08:36:01;;;;;;;2.80;1.63;;;7.00;99.90;;;;;;5032198;28;20766;-69
2022/11/12 08:38:27;;;;;;;2.70;1.50;;;7.10;99.90;;;;;;5019336;28;20621;-69
2022/11/12 08:40:52;;;;;;;2.77;1.17;;;7.00;99.90;;;;;;5015924;28;21093;-69
2022/11/12 08:43:18;;;;;;;4.33;1.30;;;7.10;99.90;;;;;;5038279;28;20182;-69
2022/11/12 08:45:44;;;;;;;3.43;1.50;;;7.10;99.90;;;;;;5033802;28;20650;-69
2022/11/12 08:48:13;;;;;;;1.60;0.97;;;7.00;99.90;;;;;;5024795;28;20185;-66
2022/11/12 08:50:39;;;;;;;1.80;1.00;;;7.00;99.90;;;;;;5034935;28;20186;-67
2022/11/12 08:53:06;;;;;;;1.50;0.90;;;6.90;99.90;;;;;;5044510;28;20813;-67
2022/11/12 08:55:33;;;;;;;2.10;1.00;;;6.90;99.90;;;;;;5037919;28;20832;-67
2022/11/12 08:58:01;;;;;;;5.90;3.30;;;6.80;99.90;;;;;;5040595;28;20432;-69
2022/11/12 09:00:32;;;;;;;22.70;7.43;;;6.80;99.90;;;;;;5032353;28;20905;-69
2022/11/12 09:03:02;;;;;;;5.43;2.60;;;6.80;99.90;;;;;;5044919;28;20412;-69
2022/11/12 09:05:28;;;;;;;4.30;1.57;;;6.90;99.90;;;;;;5014326;28;20414;-68
2022/11/12 09:07:57;;;;;;;2.93;1.73;;;6.80;99.90;;;;;;5025522;28;20923;-69
2022/11/12 09:10:23;;;;;;;1.97;1.20;;;6.90;99.90;;;;;;5031323;28;20281;-72
2022/11/12 09:12:52;;;;;;;5.93;1.73;;;6.90;99.90;;;;;;5032874;28;20426;-74
2022/11/12 09:15:18;;;;;;;4.57;1.47;;;6.90;99.90;;;;;;5024397;28;20458;-68
2022/11/12 09:17:44;;;;;;;2.30;1.57;;;7.00;99.90;;;;;;5018055;28;20476;-68
2022/11/12 09:20:10;;;;;;;1.80;0.97;;;7.10;99.90;;;;;;5038308;28;20463;-68
2022/11/12 09:22:35;;;;;;;2.27;1.20;;;7.20;99.90;;;;;;5029799;28;20189;-68
2022/11/12 09:25:01;;;;;;;2.83;1.53;;;7.20;99.90;;;;;;5030485;28;20182;-69
2022/11/12 09:27:27;;;;;;;12.70;1.17;;;7.30;99.90;;;;;;5031706;28;20258;-69
2022/11/12 09:29:53;;;;;;;2.93;1.40;;;7.30;99.90;;;;;;5028278;28;20183;-69
2022/11/12 09:32:19;;;;;;;2.40;1.17;;;7.40;99.90;;;;;;5021358;28;20425;-69
2022/11/12 09:34:44;;;;;;;1.93;1.07;;;7.40;99.90;;;;;;5023212;28;20183;-69
2022/11/12 09:37:10;;;;;;;2.53;1.40;;;7.50;99.90;;;;;;5026596;28;20287;-69
2022/11/12 09:39:35;;;;;;;3.10;1.57;;;7.60;99.90;;;;;;5028693;28;20205;-69
2022/11/12 09:42:27;;;;;;;2.37;1.20;;;7.70;99.90;;;;;;5033569;28;20179;-69
2022/11/12 09:45:12;;;;;;;2.43;1.40;;;7.80;99.90;;;;;;5034759;28;20222;-69
2022/11/12 09:48:01;;;;;;;3.17;1.50;;;7.90;99.90;;;;;;5019349;28;20906;-69
2022/11/12 09:50:51;;;;;;;2.13;1.03;;;8.00;99.90;;;;;;5013687;28;20505;-69
2022/11/12 09:53:31;;;;;;;1.40;0.80;;;8.10;99.90;;;;;;5017505;28;20456;-69
2022/11/12 09:55:56;;;;;;;2.50;1.40;;;8.20;99.90;;;;;;5017589;28;20441;-69
2022/11/12 09:58:24;;;;;;;1.97;1.00;;;8.50;99.90;;;;;;5011228;28;21172;-69
2022/11/12 10:01:00;;;;;;;5.40;1.10;;;8.50;99.90;;;;;;5020084;28;20191;-69
2022/11/12 10:03:40;;;;;;;2.47;1.40;;;8.70;99.90;;;;;;5014270;28;20429;-69
2022/11/12 10:06:12;;;;;;;4.53;1.80;;;8.80;99.90;;;;;;5025468;28;20425;-69
2022/11/12 10:09:19;;;;;;;2.03;1.03;;;9.00;99.90;;;;;;5012933;28;20437;-69
2022/11/12 10:12:31;;;;;;;2.43;1.33;;;9.10;99.90;;;;;;4997507;28;20440;-69
2022/11/12 10:18:37;;;;;;;2.30;1.10;;;9.30;99.90;;;;;;5014230;28;22369;-67
2022/11/12 10:21:10;;;;;;;1.50;0.80;;;9.40;99.90;;;;;;5040322;28;20435;-67
2022/11/12 10:23:44;;;;;;;4.03;1.23;;;9.50;99.90;;;;;;5013558;28;21070;-67
2022/11/12 10:26:16;;;;;;;2.87;1.13;;;9.60;99.90;;;;;;5024078;28;20453;-67
2022/11/12 10:28:51;;;;;;;1.73;1.00;;;9.80;99.90;;;;;;5029591;28;20463;-67
2022/11/12 10:31:19;;;;;;;1.73;0.90;;;9.80;99.90;;;;;;5037667;28;20537;-67
2022/11/12 10:33:45;;;;;;;2.37;0.97;;;9.80;99.90;;;;;;5013869;28;20439;-67
2022/11/12 10:36:23;;;;;;;2.33;1.37;;;9.90;99.90;;;;;;5006186;28;20437;-67
2022/11/12 10:38:52;;;;;;;1.93;0.90;;;9.80;99.90;;;;;;5024268;28;20463;-67
2022/11/12 10:41:24;;;;;;;3.43;1.30;;;9.80;99.90;;;;;;5018170;28;20507;-67
2022/11/12 10:43:54;;;;;;;3.47;1.20;;;9.90;99.90;;;;;;5040244;28;20421;-67
2022/11/12 10:46:32;;;;;;;2.70;1.70;;;9.90;99.90;;;;;;5040883;28;20424;-74
2022/11/12 10:49:17;;;;;;;3.97;1.30;;;9.80;99.90;;;;;;5026767;28;20461;-66
2022/11/12 10:51:54;;;;;;;2.70;1.37;;;9.80;99.90;;;;;;5022747;28;20448;-64
2022/11/12 10:54:26;;;;;;;2.93;1.00;;;9.80;99.90;;;;;;5012929;28;20484;-68
2022/11/12 10:56:53;;;;;;;2.17;1.23;;;9.90;99.90;;;;;;5017899;28;20459;-67
2022/11/12 10:59:20;;;;;;;2.37;1.00;;;10.00;99.90;;;;;;5025188;28;20465;-67
2022/11/12 11:01:58;;;;;;;3.83;1.63;;;10.10;99.90;;;;;;5027786;28;20425;-68
2022/11/12 11:04:35;;;;;;;3.20;1.67;;;10.20;99.90;;;;;;5014518;28;20449;-67
2022/11/12 11:07:17;;;;;;;2.07;0.93;;;10.30;99.90;;;;;;5033591;28;20428;-67
2022/11/12 11:09:59;;;;;;;2.90;1.27;;;10.40;99.90;;;;;;5034442;28;20432;-67
2022/11/12 11:12:26;;;;;;;3.00;1.30;;;10.50;99.90;;;;;;5033771;28;20428;-67
2022/11/12 11:15:10;;;;;;;2.00;1.03;;;10.60;99.90;;;;;;5020702;28;20971;-67
2022/11/12 11:17:36;;;;;;;2.33;1.13;;;10.70;99.90;;;;;;5021985;28;20437;-67
2022/11/12 11:20:29;;;;;;;2.60;1.43;;;10.80;99.90;;;;;;5039467;28;20469;-67
2022/11/12 11:23:24;;;;;;;1.60;0.90;;;10.80;99.90;;;;;;5011241;28;20203;-67
2022/11/12 11:25:53;;;;;;;2.27;1.13;;;10.90;99.90;;;;;;5013124;28;20505;-67
2022/11/12 11:28:19;;;;;;;1.83;0.87;;;10.70;99.90;;;;;;5033993;28;20443;-67
2022/11/12 11:31:01;;;;;;;2.40;1.47;;;10.60;99.90;;;;;;5047699;28;20416;-67
2022/11/12 11:33:27;;;;;;;3.43;1.40;;;10.70;99.90;;;;;;5033293;28;20634;-67
2022/11/12 11:36:31;;;;;;;2.57;0.93;;;10.80;99.90;;;;;;5033884;28;20427;-67
2022/11/12 11:39:27;;;;;;;2.73;1.00;;;10.80;99.90;;;;;;5024444;28;20265;-67
2022/11/12 11:42:32;;;;;;;1.53;0.70;;;10.70;99.90;;;;;;5037397;28;20452;-68
2022/11/12 11:45:09;;;;;;;2.73;1.13;;;10.90;99.90;;;;;;5022904;28;20908;-67
2022/11/12 11:47:35;;;;;;;2.37;1.30;;;11.00;99.90;;;;;;5021335;28;20421;-67
2022/11/12 11:50:00;;;;;;;1.90;1.20;;;11.00;99.90;;;;;;5026296;28;20774;-67
2022/11/12 11:52:56;;;;;;;2.33;1.13;;;11.10;99.90;;;;;;5019723;28;20197;-67
2022/11/12 11:55:35;;;;;;;1.50;0.77;;;11.20;99.90;;;;;;5031483;28;20198;-67
2022/11/12 11:58:12;;;;;;;1.47;0.80;;;11.40;99.90;;;;;;5033296;28;20921;-68
2022/11/12 12:00:46;;;;;;;1.93;0.80;;;11.40;99.90;;;;;;5020580;28;20451;-68
2022/11/12 12:03:29;;;;;;;1.77;1.00;;;11.60;99.90;;;;;;5031746;28;20444;-67
2022/11/12 12:06:11;;;;;;;2.53;1.80;;;11.50;99.90;;;;;;5023126;28;20423;-67
2022/11/12 12:08:48;;;;;;;2.53;1.20;;;11.40;99.90;;;;;;5038330;28;20911;-67
2022/11/12 12:11:19;;;;;;;1.87;1.13;;;11.40;99.90;;;;;;5025820;28;20456;-67
2022/11/12 12:14:13;;;;;;;2.43;1.57;;;11.70;99.90;;;;;;5040608;28;20431;-68
2022/11/12 12:16:59;;;;;;;3.27;1.40;;;11.60;99.90;;;;;;5032431;28;20437;-67
2022/11/12 12:19:36;;;;;;;2.43;1.10;;;11.50;99.90;;;;;;5020934;28;20564;-67
2022/11/12 12:22:08;;;;;;;2.23;1.20;;;11.50;99.90;;;;;;5036639;28;20425;-67
2022/11/12 12:24:51;;;;;;;6.07;1.30;;;11.50;99.90;;;;;;5031162;28;20862;-67
2022/11/12 12:27:21;;;;;;;3.27;1.40;;;11.50;99.90;;;;;;5019224;28;20430;-67
2022/11/12 12:30:05;;;;;;;3.80;1.53;;;11.40;99.90;;;;;;5019463;28;20453;-67
2022/11/12 12:32:42;;;;;;;2.37;1.20;;;11.50;99.90;;;;;;5030138;28;20882;-67
2022/11/12 12:35:25;;;;;;;2.23;1.40;;;11.50;99.90;;;;;;5042583;28;20427;-67
2022/11/12 12:38:12;;;;;;;3.60;1.87;;;11.60;99.90;;;;;;5013329;28;20517;-67
2022/11/12 12:41:06;;;;;;;2.17;1.07;;;11.60;99.90;;;;;;5013244;28;20799;-68
2022/11/12 12:43:45;;;;;;;2.30;1.40;;;11.70;99.90;;;;;;5019331;28;20413;-68
2022/11/12 12:46:13;;;;;;;4.57;1.60;;;11.80;99.90;;;;;;5033566;28;20967;-68
2022/11/12 12:48:45;;;;;;;2.33;1.00;;;11.80;99.90;;;;;;5013332;28;20457;-68
2022/11/12 12:51:11;;;;;;;2.40;1.50;;;11.80;99.90;;;;;;5011645;28;20501;-68
2022/11/12 12:53:36;;;;;;;5.33;1.17;;;11.80;99.90;;;;;;5013366;28;20450;-68
2022/11/12 12:56:31;;;;;;;2.53;0.90;;;11.80;99.90;;;;;;5023682;28;20866;-67
2022/11/12 12:59:02;;;;;;;1.90;1.07;;;11.80;99.90;;;;;;5013117;28;20504;-69
2022/11/12 13:01:35;;;;;;;1.77;0.97;;;11.80;99.90;;;;;;5031681;28;20417;-67
2022/11/12 13:04:08;;;;;;;2.17;0.90;;;11.80;99.90;;;;;;5011806;28;20480;-67
2022/11/12 13:06:38;;;;;;;2.10;0.93;;;11.70;99.90;;;;;;5024990;28;20886;-69
2022/11/12 13:09:04;;;;;;;3.07;1.17;;;11.60;99.90;;;;;;5014434;28;20477;-69
2022/11/12 13:14:36;;;;;;;1.97;0.93;;;11.60;99.90;;;;;;5012270;28;20413;-67
2022/11/12 13:17:03;;;;;;;1.30;0.60;;;11.70;99.90;;;;;;5013052;28;20414;-67
2022/11/12 13:19:52;;;;;;;2.07;0.93;;;11.60;99.90;;;;;;5025714;28;20453;-67
2022/11/12 13:22:17;;;;;;;2.27;1.00;;;11.70;99.90;;;;;;5012122;28;20433;-67
2022/11/12 13:25:11;;;;;;;2.23;1.00;;;11.70;99.90;;;;;;5030948;28;21247;-68
2022/11/12 13:27:43;;;;;;;3.10;1.10;;;11.60;99.90;;;;;;5018255;28;20183;-68
2022/11/12 13:30:17;;;;;;;2.17;0.87;;;11.60;99.90;;;;;;5032114;28;20425;-68
2022/11/12 13:32:45;;;;;;;4.30;1.40;;;11.60;99.90;;;;;;5032510;28;20445;-67
2022/11/12 13:35:13;;;;;;;1.73;0.93;;;11.50;99.90;;;;;;5047697;28;20943;-67
2022/11/12 13:37:44;;;;;;;1.97;1.23;;;11.50;99.90;;;;;;5033215;28;20458;-67
2022/11/12 13:40:31;;;;;;;1.90;1.10;;;11.60;99.90;;;;;;5033550;28;20452;-67
2022/11/12 13:43:09;;;;;;;3.07;1.40;;;11.50;99.90;;;;;;5022988;28;20507;-67